Time;durP1;ratioP1;P1;durP2;ratioP2;P2;SDS_P1;SDS_P2;PMS_P1;PMS_P2;Temp;Humidity;BMP_temperature;BMP_pressure;BME280_temperature;BME280_humidity;BME280_pressure;Samples;Min_cycle;Max_cycle;Signal;HPM_P1;HPM_P2
2023/10/17 00:01:34;;;;;;;2.60;1.70;;;6.40;1.00;;;;;;4954550;28;20411;-87
2023/10/17 00:04:27;;;;;;;2.25;2.00;;;6.30;1.00;;;;;;4971284;28;20416;-86
2023/10/17 00:06:50;;;;;;;2.40;2.05;;;6.30;1.00;;;;;;4952231;28;20394;-87
2023/10/17 00:09:21;;;;;;;2.67;2.10;;;6.20;1.00;;;;;;4944468;28;20923;-86
2023/10/17 00:14:34;;;;;;;3.50;2.10;;;6.20;1.00;;;;;;4972300;28;20446;-86
2023/10/17 00:17:04;;;;;;;3.30;2.00;;;6.30;1.00;;;;;;4975842;28;20416;-86
2023/10/17 00:19:33;;;;;;;3.35;2.20;;;6.30;1.00;;;;;;4958639;28;20392;-86
2023/10/17 00:22:04;;;;;;;2.35;2.10;;;6.20;1.00;;;;;;4960987;28;20403;-86
2023/10/17 00:24:30;;;;;;;3.38;2.15;;;6.20;1.00;;;;;;4974916;28;20420;-86
2023/10/17 00:26:56;;;;;;;2.53;1.90;;;6.10;1.00;;;;;;4978578;28;20412;-86
2023/10/17 00:29:22;;;;;;;2.70;1.80;;;6.20;1.00;;;;;;4960819;28;20407;-86
2023/10/17 00:31:48;;;;;;;2.70;1.98;;;6.20;1.00;;;;;;4957368;28;20400;-86
2023/10/17 00:34:13;;;;;;;2.28;2.00;;;6.10;1.00;;;;;;4958023;28;20958;-86
2023/10/17 00:36:49;;;;;;;2.22;1.98;;;6.00;1.00;;;;;;4975218;28;20491;-85
2023/10/17 00:39:37;;;;;;;2.17;1.98;;;6.00;1.00;;;;;;4975065;28;20415;-85
2023/10/17 00:44:39;;;;;;;2.50;2.10;;;6.20;1.00;;;;;;4975044;28;20455;-85
2023/10/17 00:47:07;;;;;;;2.95;2.20;;;5.70;1.00;;;;;;4957753;28;20487;-85
2023/10/17 00:49:44;;;;;;;2.88;2.00;;;5.80;1.00;;;;;;4957805;28;20765;-86
2023/10/17 00:52:26;;;;;;;3.15;2.22;;;5.90;1.00;;;;;;4959486;28;20407;-86
2023/10/17 00:54:57;;;;;;;2.60;2.40;;;5.70;1.00;;;;;;4975272;28;20455;-85
2023/10/17 00:57:26;;;;;;;2.60;2.40;;;5.70;1.00;;;;;;4976565;28;20411;-85
2023/10/17 01:00:10;;;;;;;3.22;2.92;;;5.70;1.00;;;;;;4959834;28;20404;-86
2023/10/17 01:02:44;;;;;;;2.92;2.30;;;6.00;1.00;;;;;;4961119;28;20403;-85
2023/10/17 01:05:12;;;;;;;2.60;2.40;;;5.70;1.00;;;;;;4977907;28;20442;-86
2023/10/17 01:07:40;;;;;;;4.13;2.67;;;5.70;1.00;;;;;;4967016;28;20411;-86
2023/10/17 01:10:16;;;;;;;2.80;2.55;;;5.80;1.00;;;;;;4957554;28;20467;-87
2023/10/17 01:15:28;;;;;;;3.10;2.72;;;5.70;1.00;;;;;;4973958;28;20388;-86
2023/10/17 01:17:54;;;;;;;4.35;2.60;;;5.80;1.00;;;;;;4975609;28;20387;-87
2023/10/17 01:20:20;;;;;;;4.57;3.00;;;5.90;1.00;;;;;;4958444;28;20393;-87
2023/10/17 01:22:47;;;;;;;4.75;2.55;;;5.80;1.00;;;;;;4956989;28;20401;-86
2023/10/17 01:25:25;;;;;;;3.13;2.83;;;5.80;1.00;;;;;;4956056;28;20409;-86
2023/10/17 01:27:52;;;;;;;3.38;3.00;;;5.80;1.00;;;;;;4956724;28;20462;-87
2023/10/17 01:30:18;;;;;;;3.80;2.88;;;5.50;1.00;;;;;;4957364;28;20400;-87
2023/10/17 01:32:44;;;;;;;4.70;3.08;;;5.60;1.00;;;;;;4973857;28;20455;-86
2023/10/17 01:35:10;;;;;;;3.45;3.10;;;5.40;1.00;;;;;;4974632;28;20400;-86
2023/10/17 01:37:36;;;;;;;3.13;2.80;;;5.70;1.00;;;;;;4956770;28;20435;-87
2023/10/17 01:40:09;;;;;;;4.50;2.60;;;6.00;1.00;;;;;;4964054;28;20433;-86
2023/10/17 01:42:37;;;;;;;2.88;2.55;;;5.30;1.00;;;;;;4970164;28;20401;-87
2023/10/17 01:45:06;;;;;;;4.80;2.90;;;5.50;1.00;;;;;;4964388;28;20408;-87
2023/10/17 01:47:31;;;;;;;5.37;2.40;;;5.70;1.00;;;;;;4956787;28;20424;-86
2023/10/17 01:49:57;;;;;;;2.30;2.10;;;5.50;1.00;;;;;;4956890;28;20400;-86
2023/10/17 01:52:24;;;;;;;2.77;2.40;;;5.60;1.00;;;;;;4956696;28;20416;-86
2023/10/17 01:54:49;;;;;;;3.50;2.22;;;5.70;1.00;;;;;;5021432;23;20457;-81
2023/10/17 01:57:17;;;;;;;4.30;2.80;;;5.50;1.00;;;;;;5013551;28;20418;-80
2023/10/17 01:59:42;;;;;;;3.80;2.50;;;5.50;1.00;;;;;;5011605;28;20383;-80
2023/10/17 02:02:08;;;;;;;3.20;2.90;;;5.60;1.00;;;;;;5013987;28;20498;-80
2023/10/17 02:04:35;;;;;;;4.35;2.55;;;5.60;1.00;;;;;;5004998;28;20418;-80
2023/10/17 02:07:02;;;;;;;3.40;2.70;;;5.50;1.00;;;;;;5003140;28;20410;-81
2023/10/17 02:11:55;;;;;;;3.55;2.80;;;5.40;1.00;;;;;;4979148;28;20475;-81
2023/10/17 02:14:23;;;;;;;3.80;3.05;;;5.30;1.00;;;;;;4981346;28;20923;-81
2023/10/17 02:16:49;;;;;;;3.50;2.70;;;5.10;1.00;;;;;;4959169;28;20935;-81
2023/10/17 02:19:15;;;;;;;3.35;2.67;;;5.20;1.00;;;;;;4973305;28;20408;-81
2023/10/17 02:21:43;;;;;;;4.85;2.70;;;5.00;1.00;;;;;;4974662;28;20412;-81
2023/10/17 02:24:09;;;;;;;3.80;3.00;;;5.20;1.00;;;;;;4957319;28;20420;-81
2023/10/17 02:26:55;;;;;;;5.25;3.00;;;5.20;1.00;;;;;;4957186;28;20916;-81
2023/10/17 02:29:24;;;;;;;3.80;2.80;;;5.20;1.00;;;;;;4974945;28;20419;-81
2023/10/17 02:31:52;;;;;;;3.30;3.00;;;5.40;1.00;;;;;;4974121;28;20503;-80
2023/10/17 02:34:22;;;;;;;4.05;3.00;;;5.50;1.00;;;;;;4972597;28;20900;-81
2023/10/17 02:36:49;;;;;;;3.30;3.00;;;5.70;1.00;;;;;;4975513;28;20388;-81
2023/10/17 02:39:15;;;;;;;3.10;2.80;;;5.70;1.00;;;;;;4957222;28;20530;-81
2023/10/17 02:41:45;;;;;;;4.40;2.90;;;5.80;1.00;;;;;;4974191;28;20392;-80
2023/10/17 02:44:12;;;;;;;3.40;3.10;;;5.60;1.00;;;;;;4956058;28;20412;-80
2023/10/17 02:46:38;;;;;;;3.10;2.50;;;5.60;1.00;;;;;;4974042;28;20418;-81
2023/10/17 02:49:07;;;;;;;3.55;3.25;;;5.40;1.00;;;;;;4998259;28;20428;-80
2023/10/17 02:51:33;;;;;;;4.68;3.00;;;5.20;1.00;;;;;;4998393;28;20373;-81
2023/10/17 02:54:05;;;;;;;3.25;2.95;;;5.10;1.00;;;;;;4998346;28;20416;-81
2023/10/17 02:56:36;;;;;;;3.40;2.88;;;5.20;1.00;;;;;;4992218;28;20400;-81
2023/10/17 02:59:04;;;;;;;3.20;2.90;;;5.20;1.00;;;;;;4973395;28;20398;-81
2023/10/17 03:01:30;;;;;;;2.72;2.53;;;5.30;1.00;;;;;;4978908;28;20475;-81
2023/10/17 03:03:57;;;;;;;4.32;2.50;;;5.30;1.00;;;;;;4974111;28;20503;-81
2023/10/17 03:06:23;;;;;;;4.05;2.40;;;5.30;1.00;;;;;;4977731;28;20400;-81
2023/10/17 03:08:51;;;;;;;3.20;2.30;;;5.30;1.00;;;;;;4956124;28;20478;-81
2023/10/17 03:11:26;;;;;;;3.22;2.55;;;5.30;1.00;;;;;;4973192;28;20828;-81
2023/10/17 03:13:52;;;;;;;3.28;2.75;;;5.30;1.00;;;;;;4955583;28;20420;-81
2023/10/17 03:16:27;;;;;;;3.05;2.70;;;5.80;1.00;;;;;;4973090;28;20411;-81
2023/10/17 03:18:56;;;;;;;2.90;2.47;;;5.30;1.00;;;;;;4973410;28;20399;-81
2023/10/17 03:21:34;;;;;;;3.25;2.70;;;5.10;1.00;;;;;;4963624;28;20513;-82
2023/10/17 03:24:04;;;;;;;2.72;2.40;;;5.30;1.00;;;;;;4977712;28;20426;-81
2023/10/17 03:26:39;;;;;;;3.05;2.65;;;5.30;1.00;;;;;;4978825;28;20401;-81
2023/10/17 03:29:13;;;;;;;3.58;2.80;;;5.30;1.00;;;;;;4974433;28;20404;-82
2023/10/17 03:31:41;;;;;;;3.45;3.15;;;5.30;1.00;;;;;;4964579;28;20687;-82
2023/10/17 03:34:12;;;;;;;3.25;2.90;;;5.30;1.00;;;;;;4982791;28;20402;-82
2023/10/17 03:36:41;;;;;;;3.20;2.90;;;5.10;1.00;;;;;;4956904;28;20801;-82
2023/10/17 03:41:58;;;;;;;3.60;3.30;;;5.10;1.00;;;;;;4972783;28;20390;-81
2023/10/17 03:44:30;;;;;;;4.50;3.30;;;4.90;1.00;;;;;;4954660;28;20475;-81
2023/10/17 03:47:03;;;;;;;4.55;3.08;;;4.90;1.00;;;;;;4972653;28;20875;-82
2023/10/17 03:49:36;;;;;;;3.55;3.25;;;5.00;1.00;;;;;;4953901;28;20435;-82
2023/10/17 03:52:04;;;;;;;3.90;3.50;;;5.10;1.00;;;;;;4953164;28;20409;-82
2023/10/17 03:54:30;;;;;;;3.47;3.00;;;5.00;1.00;;;;;;4960253;28;20422;-81
2023/10/17 03:57:45;;;;;;;3.80;3.40;;;5.00;1.00;;;;;;4972508;28;20475;-81
2023/10/17 03:59:52;;;;;;;3.70;3.22;;;5.00;1.00;;;;;;4966673;28;20470;-81
2023/10/17 04:02:21;;;;;;;3.13;2.70;;;4.90;1.00;;;;;;4972332;28;20403;-82
2023/10/17 04:04:57;;;;;;;2.92;2.72;;;4.90;1.00;;;;;;4956194;28;21052;-81
2023/10/17 04:07:27;;;;;;;3.42;3.13;;;4.80;1.00;;;;;;4973020;28;20384;-81
2023/10/17 04:09:53;;;;;;;3.40;3.10;;;5.00;1.00;;;;;;4972279;28;20781;-81
2023/10/17 04:12:38;;;;;;;3.28;2.60;;;5.00;1.00;;;;;;4972090;28;20420;-81
2023/10/17 04:15:09;;;;;;;3.10;2.80;;;5.00;1.00;;;;;;4972303;28;20387;-81
2023/10/17 04:17:38;;;;;;;3.38;3.08;;;5.10;1.00;;;;;;4955161;28;20483;-81
2023/10/17 04:20:13;;;;;;;3.45;3.15;;;5.00;1.00;;;;;;4972348;28;20436;-81
2023/10/17 04:22:39;;;;;;;3.50;3.00;;;5.10;1.00;;;;;;4954773;28;20400;-81
2023/10/17 04:25:19;;;;;;;3.13;2.83;;;5.00;1.00;;;;;;4972357;28;20463;-81
2023/10/17 04:27:54;;;;;;;4.03;3.40;;;5.10;1.00;;;;;;4972581;28;20857;-81
2023/10/17 04:30:30;;;;;;;3.28;2.97;;;4.90;1.00;;;;;;4972427;28;20404;-81
2023/10/17 04:33:08;;;;;;;3.90;3.20;;;5.00;1.00;;;;;;4971687;28;20391;-81
2023/10/17 04:35:44;;;;;;;4.60;3.50;;;4.90;1.00;;;;;;4954445;28;20471;-81
2023/10/17 04:38:18;;;;;;;4.20;3.80;;;4.80;1.00;;;;;;4971657;28;20404;-81
2023/10/17 04:40:50;;;;;;;4.82;3.47;;;5.10;1.00;;;;;;4977851;28;20384;-81
2023/10/17 04:46:08;;;;;;;4.05;3.65;;;5.20;1.00;;;;;;4973709;28;20455;-81
2023/10/17 04:48:40;;;;;;;4.47;3.67;;;4.80;1.00;;;;;;4955399;28;20411;-82
2023/10/17 04:53:50;;;;;;;4.43;3.47;;;4.80;1.00;;;;;;4973502;28;20507;-82
2023/10/17 04:56:18;;;;;;;4.05;3.65;;;5.10;1.00;;;;;;4981272;28;20483;-82
2023/10/17 04:58:49;;;;;;;4.73;3.70;;;5.20;1.00;;;;;;4981096;28;20404;-82
2023/10/17 05:04:02;;;;;;;4.03;3.40;;;5.10;1.00;;;;;;4989199;28;20422;-81
2023/10/17 06:17:27;;;;;;;6.70;4.30;;;4.80;1.00;;;;;;4982791;28;20475;-83
2023/10/17 06:19:53;;;;;;;5.18;4.00;;;4.50;1.00;;;;;;4964959;28;20418;-82
2023/10/17 06:26:03;;;;;;;6.13;4.85;;;4.30;1.00;;;;;;4970445;28;20867;-82
2023/10/17 06:30:06;;;;;;;7.75;5.07;;;4.70;1.00;;;;;;4980559;28;20402;-82
2023/10/17 06:35:20;;;;;;;6.20;5.60;;;4.60;1.00;;;;;;4978013;28;20501;-81
2023/10/17 06:37:46;;;;;;;10.10;6.60;;;4.70;1.00;;;;;;4965145;28;20400;-81
2023/10/17 06:40:15;;;;;;;7.05;6.35;;;4.70;1.00;;;;;;4960591;28;20400;-82
2023/10/17 06:42:48;;;;;;;6.83;5.60;;;4.70;1.00;;;;;;4960656;28;20609;-82
2023/10/17 06:45:20;;;;;;;6.05;5.22;;;4.60;1.00;;;;;;4979429;28;20411;-81
2023/10/17 06:47:49;;;;;;;5.13;4.33;;;4.80;1.00;;;;;;4962581;28;20942;-81
2023/10/17 06:55:22;;;;;;;6.50;5.37;;;4.80;1.00;;;;;;4979528;28;20491;-81
2023/10/17 06:57:52;;;;;;;4.82;4.32;;;4.90;1.00;;;;;;4982974;28;20396;-80
2023/10/17 07:00:25;;;;;;;4.60;4.20;;;5.20;1.00;;;;;;4978039;28;20401;-82
2023/10/17 07:02:56;;;;;;;5.82;4.20;;;5.10;1.00;;;;;;4971246;28;20484;-82
2023/10/17 07:05:26;;;;;;;4.90;4.40;;;5.20;1.00;;;;;;4977226;28;20408;-82
2023/10/17 07:07:59;;;;;;;5.22;4.53;;;5.40;1.00;;;;;;4978680;28;20415;-82
2023/10/17 07:13:39;;;;;;;5.00;4.50;;;5.50;1.00;;;;;;4996420;28;20477;-82
2023/10/17 07:16:11;;;;;;;5.05;3.97;;;5.80;1.00;;;;;;4980609;28;20391;-81
2023/10/17 07:18:51;;;;;;;4.57;4.18;;;5.70;1.00;;;;;;4981086;28;20406;-81
2023/10/17 07:21:23;;;;;;;4.05;3.65;;;5.80;1.00;;;;;;4966920;28;20770;-80
2023/10/17 07:23:49;;;;;;;4.45;4.03;;;5.70;1.00;;;;;;4979022;28;20435;-82
2023/10/17 07:26:24;;;;;;;4.25;3.60;;;5.80;1.00;;;;;;4963292;28;20396;-82
2023/10/17 07:28:50;;;;;;;3.80;3.40;;;6.00;1.00;;;;;;4980664;28;20408;-82
2023/10/17 07:31:16;;;;;;;4.90;4.00;;;6.00;1.00;;;;;;4963225;28;20444;-81
2023/10/17 07:33:43;;;;;;;5.07;3.23;;;5.50;1.00;;;;;;4963961;28;20451;-82
2023/10/17 07:36:18;;;;;;;3.40;3.10;;;6.50;1.00;;;;;;4964290;28;20408;-81
2023/10/17 07:38:44;;;;;;;4.20;3.53;;;6.40;1.00;;;;;;4981893;28;20448;-81
2023/10/17 07:41:14;;;;;;;3.50;3.20;;;6.50;1.00;;;;;;4980755;28;20400;-81
2023/10/17 07:43:46;;;;;;;4.40;3.35;;;6.70;1.00;;;;;;4963255;28;20436;-80
2023/10/17 07:46:18;;;;;;;4.17;3.77;;;6.80;1.00;;;;;;4980372;28;20406;-79
2023/10/17 07:48:48;;;;;;;5.20;3.90;;;6.70;1.00;;;;;;4986317;28;20392;-80
2023/10/17 07:51:15;;;;;;;4.82;3.90;;;5.90;1.00;;;;;;4959597;28;20396;-82
2023/10/17 07:53:45;;;;;;;4.30;3.90;;;6.40;1.00;;;;;;4985712;23;20442;-87
2023/10/17 07:56:20;;;;;;;5.45;4.20;;;7.00;1.00;;;;;;4980075;28;20469;-87
2023/10/17 07:59:04;;;;;;;5.72;3.90;;;7.40;1.00;;;;;;4976570;28;20444;-87
2023/10/17 08:01:57;;;;;;;5.55;3.58;;;7.60;1.00;;;;;;4976193;28;20481;-88
2023/10/17 08:04:24;;;;;;;4.05;3.65;;;7.70;1.00;;;;;;4991711;28;21041;-87
2023/10/17 08:06:51;;;;;;;4.70;4.03;;;7.80;1.00;;;;;;4974819;28;20390;-87
2023/10/17 08:11:52;;;;;;;5.70;4.10;;;7.50;1.00;;;;;;4992120;28;20398;-86
2023/10/17 08:14:41;;;;;;;4.03;3.63;;;7.90;1.00;;;;;;4974838;28;20421;-87
2023/10/17 08:17:09;;;;;;;5.93;4.32;;;7.90;1.00;;;;;;4991870;28;20398;-87
2023/10/17 08:20:00;;;;;;;4.60;4.20;;;7.90;1.00;;;;;;4975169;28;20394;-87
2023/10/17 08:22:25;;;;;;;5.18;4.35;;;8.00;1.00;;;;;;4997059;28;20398;-87
2023/10/17 08:24:51;;;;;;;5.63;4.45;;;7.70;1.00;;;;;;4996377;28;20997;-87
2023/10/17 08:29:57;;;;;;;5.65;4.30;;;7.80;1.00;;;;;;5003690;28;20404;-86
2023/10/17 08:35:38;;;;;;;5.60;4.80;;;8.40;1.00;;;;;;4993985;28;20447;-87
2023/10/17 08:37:44;;;;;;;5.83;4.90;;;8.30;1.00;;;;;;4990146;28;20444;-87
2023/10/17 08:40:31;;;;;;;7.05;4.70;;;8.40;1.00;;;;;;4979872;28;20406;-87
2023/10/17 08:43:00;;;;;;;6.80;4.68;;;8.00;1.00;;;;;;4979392;28;20408;-87
2023/10/17 08:45:26;;;;;;;5.82;4.78;;;8.30;1.00;;;;;;4978509;28;21000;-87
2023/10/17 08:48:00;;;;;;;5.68;5.00;;;8.70;1.00;;;;;;4979204;28;20762;-88
2023/10/17 08:50:26;;;;;;;5.00;4.60;;;8.70;1.00;;;;;;4995787;28;20818;-87
2023/10/17 08:52:53;;;;;;;6.97;4.88;;;8.40;1.00;;;;;;4977985;28;20390;-87
2023/10/17 08:55:21;;;;;;;5.78;4.88;;;8.80;1.00;;;;;;4978698;28;20421;-87
2023/10/17 08:57:46;;;;;;;6.35;5.03;;;8.80;1.00;;;;;;4978532;28;20418;-87
2023/10/17 09:02:43;;;;;;;4.97;4.57;;;9.10;1.00;;;;;;4995700;28;20973;-87
2023/10/17 09:05:17;;;;;;;6.60;5.10;;;9.20;1.00;;;;;;4995685;28;20898;-87
2023/10/17 09:07:45;;;;;;;6.20;4.20;;;9.20;1.00;;;;;;4995779;28;20420;-86
2023/10/17 09:10:21;;;;;;;5.00;4.40;;;8.90;1.00;;;;;;4977910;28;20467;-87
2023/10/17 09:15:59;;;;;;;5.10;3.70;;;9.50;1.00;;;;;;4996619;28;20905;-87
2023/10/17 09:18:27;;;;;;;4.90;4.20;;;9.50;1.00;;;;;;4978029;28;20457;-87
2023/10/17 09:20:54;;;;;;;4.20;3.80;;;9.10;1.00;;;;;;4978090;28;20732;-87
2023/10/17 09:23:28;;;;;;;4.30;3.80;;;9.70;1.00;;;;;;4977754;28;20399;-87
2023/10/17 09:26:07;;;;;;;5.75;4.30;;;9.90;1.00;;;;;;4978014;28;20398;-87
2023/10/17 09:28:33;;;;;;;5.47;4.03;;;9.90;1.00;;;;;;4995539;28;20403;-87
2023/10/17 09:31:08;;;;;;;5.40;4.13;;;9.80;1.00;;;;;;4977570;28;20402;-88
2023/10/17 09:33:43;;;;;;;5.80;4.77;;;9.90;1.00;;;;;;4978149;28;20485;-88
2023/10/17 09:36:10;;;;;;;5.40;4.50;;;10.30;1.00;;;;;;4996025;28;20453;-88
2023/10/17 09:38:43;;;;;;;5.72;4.60;;;11.50;1.00;;;;;;4982135;28;20433;-87
2023/10/17 09:41:11;;;;;;;5.28;4.22;;;10.40;1.00;;;;;;5001840;28;20399;-88
2023/10/17 09:43:38;;;;;;;4.90;4.05;;;10.40;1.00;;;;;;5001768;28;20404;-88
2023/10/17 09:46:09;;;;;;;5.30;4.70;;;10.10;1.00;;;;;;5026289;28;20429;-87
2023/10/17 09:48:43;;;;;;;5.35;4.43;;;10.00;1.00;;;;;;5011221;28;20387;-88
2023/10/17 09:51:20;;;;;;;5.70;3.88;;;10.10;1.00;;;;;;5002049;28;20429;-87
2023/10/17 09:53:51;;;;;;;5.05;3.90;;;10.30;1.00;;;;;;5001322;28;20402;-87
2023/10/17 09:56:21;;;;;;;4.75;3.60;;;10.60;1.00;;;;;;5016670;28;20477;-87
2023/10/17 09:58:50;;;;;;;5.53;4.00;;;10.80;1.00;;;;;;4978792;28;20395;-87
2023/10/17 10:01:20;;;;;;;5.80;4.00;;;10.80;1.00;;;;;;4977653;28;20402;-87
2023/10/17 10:03:51;;;;;;;4.68;4.00;;;10.90;1.00;;;;;;4996864;28;20420;-87
2023/10/17 10:06:31;;;;;;;5.82;3.97;;;10.60;1.00;;;;;;4986249;28;20395;-88
2023/10/17 10:09:26;;;;;;;4.43;4.03;;;10.70;1.00;;;;;;4979590;28;20390;-88
2023/10/17 10:11:51;;;;;;;5.20;3.90;;;11.10;1.00;;;;;;4968680;28;20428;-88
2023/10/17 10:14:23;;;;;;;3.67;3.30;;;11.10;1.00;;;;;;4973270;28;20395;-88
2023/10/17 10:16:50;;;;;;;4.00;3.70;;;11.50;1.00;;;;;;4957304;28;20408;-87
2023/10/17 10:19:19;;;;;;;4.40;4.00;;;10.60;1.00;;;;;;4974559;28;20396;-88
2023/10/17 10:21:59;;;;;;;4.30;3.67;;;11.30;1.00;;;;;;4957451;28;20495;-87
2023/10/17 10:24:31;;;;;;;3.90;3.50;;;11.60;1.00;;;;;;4970729;28;20416;-87
2023/10/17 10:27:14;;;;;;;3.63;3.33;;;11.60;1.00;;;;;;4974423;28;20399;-89
2023/10/17 10:29:40;;;;;;;4.55;3.40;;;11.00;1.00;;;;;;4974854;28;20388;-88
2023/10/17 10:32:06;;;;;;;5.07;3.50;;;11.10;1.00;;;;;;4957091;28;20458;-89
2023/10/17 10:34:37;;;;;;;5.63;3.75;;;11.50;1.00;;;;;;4988663;28;20439;-89
2023/10/17 10:37:03;;;;;;;4.25;3.58;;;11.50;1.00;;;;;;4997449;28;20937;-88
2023/10/17 10:39:32;;;;;;;3.65;3.20;;;12.10;1.00;;;;;;4980592;28;20387;-87
2023/10/17 10:42:00;;;;;;;4.20;3.30;;;13.00;1.00;;;;;;4977060;28;20390;-88
2023/10/17 10:44:26;;;;;;;4.18;3.50;;;13.40;1.00;;;;;;4976280;28;20438;-88
2023/10/17 10:46:53;;;;;;;3.80;3.50;;;13.30;1.00;;;;;;4982245;28;20744;-88
2023/10/17 10:49:30;;;;;;;4.97;3.63;;;12.00;1.00;;;;;;4984755;28;20390;-87
2023/10/17 10:51:58;;;;;;;5.32;3.40;;;12.70;1.00;;;;;;4998726;28;20386;-90
2023/10/17 10:54:44;;;;;;;3.80;3.35;;;12.60;1.00;;;;;;4986085;28;20403;-88
2023/10/17 10:57:09;;;;;;;4.28;3.30;;;12.40;1.00;;;;;;4977107;28;20495;-88
2023/10/17 10:59:35;;;;;;;3.53;3.22;;;12.60;1.00;;;;;;4998757;28;20473;-87
2023/10/17 11:02:01;;;;;;;4.65;3.20;;;12.90;1.00;;;;;;4981323;28;20402;-87
2023/10/17 11:04:26;;;;;;;7.10;3.90;;;12.20;1.00;;;;;;4992449;28;20425;-87
2023/10/17 11:06:52;;;;;;;4.00;3.60;;;13.20;1.00;;;;;;4994942;28;20391;-88
2023/10/17 11:09:24;;;;;;;4.33;3.40;;;13.50;1.00;;;;;;4981565;28;20394;-87
2023/10/17 11:11:50;;;;;;;3.75;3.35;;;12.80;1.00;;;;;;4983362;28;20425;-88
2023/10/17 11:14:16;;;;;;;3.70;3.30;;;13.20;1.00;;;;;;4993778;28;20394;-88
2023/10/17 11:16:42;;;;;;;4.03;3.15;;;12.60;1.00;;;;;;4993135;28;20403;-88
2023/10/17 11:19:22;;;;;;;4.80;3.20;;;13.40;1.00;;;;;;4976435;28;20429;-87
2023/10/17 11:21:52;;;;;;;4.70;3.60;;;13.50;1.00;;;;;;4981752;28;20399;-88
2023/10/17 11:24:20;;;;;;;4.47;3.13;;;15.60;1.00;;;;;;4976182;28;20545;-88
2023/10/17 11:26:45;;;;;;;4.72;3.00;;;11.60;1.00;;;;;;4976340;28;20428;-88
2023/10/17 11:29:12;;;;;;;3.55;2.83;;;13.20;1.00;;;;;;4975668;28;20946;-88
2023/10/17 11:31:41;;;;;;;3.28;2.88;;;13.30;1.00;;;;;;4976181;28;20393;-88
2023/10/17 11:34:07;;;;;;;3.97;2.90;;;12.90;1.00;;;;;;4973875;28;20438;-88
2023/10/17 11:36:45;;;;;;;3.67;3.00;;;13.60;1.00;;;;;;4976498;28;20465;-87
2023/10/17 11:39:15;;;;;;;4.17;2.90;;;14.10;1.00;;;;;;4976792;28;20434;-88
2023/10/17 11:41:52;;;;;;;3.00;2.70;;;13.90;1.00;;;;;;4976784;28;20827;-88
2023/10/17 11:44:23;;;;;;;3.50;3.20;;;13.80;1.00;;;;;;4976551;28;20803;-88
2023/10/17 11:46:55;;;;;;;5.10;2.60;;;13.70;1.00;;;;;;4976409;28;20402;-88
2023/10/17 11:49:27;;;;;;;3.40;3.08;;;13.90;1.00;;;;;;4975953;28;20774;-89
2023/10/17 11:52:01;;;;;;;3.97;2.90;;;14.60;1.00;;;;;;4992019;28;20461;-87
2023/10/17 11:54:28;;;;;;;4.43;2.90;;;13.70;1.00;;;;;;4977313;28;20450;-90
2023/10/17 11:56:57;;;;;;;4.60;3.20;;;13.60;1.00;;;;;;4990655;28;20389;-87
2023/10/17 11:59:23;;;;;;;3.30;2.80;;;13.60;1.00;;;;;;4980897;28;20481;-86
2023/10/17 12:01:54;;;;;;;3.80;2.95;;;13.70;1.00;;;;;;4982509;28;20424;-86
2023/10/17 12:04:20;;;;;;;2.78;2.50;;;13.80;1.00;;;;;;4977505;28;20455;-85
2023/10/17 12:06:47;;;;;;;4.33;3.00;;;13.80;1.00;;;;;;4991760;28;20390;-86
2023/10/17 12:11:49;;;;;;;3.30;2.70;;;13.90;1.00;;;;;;4993081;28;20944;-85
2023/10/17 12:14:19;;;;;;;3.20;2.90;;;13.70;1.00;;;;;;4994583;28;20403;-86
2023/10/17 12:16:53;;;;;;;3.45;2.95;;;13.90;1.00;;;;;;4974754;28;20485;-86
2023/10/17 12:19:22;;;;;;;3.92;3.13;;;13.50;1.00;;;;;;4980104;28;20436;-86
2023/10/17 12:21:53;;;;;;;2.97;2.55;;;13.70;1.00;;;;;;4975559;28;20393;-86
2023/10/17 12:24:37;;;;;;;2.97;2.67;;;13.50;1.00;;;;;;4981831;28;20406;-86
2023/10/17 12:27:06;;;;;;;3.83;2.70;;;13.70;1.00;;;;;;4980639;28;20405;-87
2023/10/17 12:29:34;;;;;;;3.33;2.70;;;13.80;1.00;;;;;;4978022;28;20397;-87
2023/10/17 12:32:01;;;;;;;4.72;3.00;;;14.30;1.00;;;;;;4977571;28;20451;-89
2023/10/17 12:34:30;;;;;;;4.25;3.70;;;13.70;1.00;;;;;;4976403;28;20398;-89
2023/10/17 12:36:55;;;;;;;3.10;2.80;;;12.90;1.00;;;;;;4976302;28;20469;-88
2023/10/17 12:39:21;;;;;;;3.60;3.20;;;13.70;1.00;;;;;;4975059;28;20851;-87
2023/10/17 12:41:47;;;;;;;3.30;3.00;;;13.60;1.00;;;;;;4970161;28;20462;-88
2023/10/17 12:44:13;;;;;;;4.93;3.50;;;12.50;1.00;;;;;;4975784;28;20921;-88
2023/10/17 12:46:39;;;;;;;3.72;3.03;;;14.20;1.00;;;;;;4979167;28;20460;-88
2023/10/17 12:49:06;;;;;;;3.47;3.03;;;13.50;1.00;;;;;;4975031;28;20771;-89
2023/10/17 12:51:32;;;;;;;4.43;2.70;;;13.60;1.00;;;;;;4977889;28;20493;-89
2023/10/17 12:53:58;;;;;;;3.73;3.30;;;13.50;1.00;;;;;;4995330;28;20422;-88
2023/10/17 12:56:24;;;;;;;2.90;2.60;;;13.60;1.00;;;;;;4979117;28;20922;-89
2023/10/17 12:58:51;;;;;;;4.05;3.03;;;13.90;1.00;;;;;;4975255;28;20390;-90
2023/10/17 13:01:17;;;;;;;4.45;3.15;;;13.90;1.00;;;;;;4975127;28;20391;-89
2023/10/17 13:03:43;;;;;;;3.70;2.80;;;14.10;1.00;;;;;;4974337;28;20386;-86
2023/10/17 13:06:11;;;;;;;3.10;2.90;;;14.10;1.00;;;;;;4974877;28;20443;-87
2023/10/17 13:08:37;;;;;;;3.40;3.10;;;14.20;1.00;;;;;;4974480;28;20383;-87
2023/10/17 13:11:03;;;;;;;3.40;3.10;;;13.10;1.00;;;;;;4991781;28;20893;-87
2023/10/17 13:13:30;;;;;;;4.07;2.90;;;13.70;1.00;;;;;;4974056;28;20867;-87
2023/10/17 13:15:57;;;;;;;3.83;3.28;;;14.10;1.00;;;;;;4976777;28;20932;-87
2023/10/17 13:18:24;;;;;;;3.45;3.00;;;14.20;1.00;;;;;;4982941;28;20778;-87
2023/10/17 13:20:50;;;;;;;3.00;2.70;;;16.00;1.00;;;;;;4982394;28;20401;-89
2023/10/17 13:23:16;;;;;;;3.50;3.15;;;14.10;1.00;;;;;;4987434;28;20392;-90
2023/10/17 13:25:43;;;;;;;3.78;2.90;;;15.20;1.00;;;;;;4990255;28;20424;-89
2023/10/17 13:28:09;;;;;;;4.20;3.10;;;14.20;1.00;;;;;;4995068;28;20472;-90
2023/10/17 13:30:35;;;;;;;3.30;2.90;;;14.40;1.00;;;;;;4978255;28;20445;-90
2023/10/17 13:33:01;;;;;;;3.30;2.90;;;14.10;1.00;;;;;;4980914;28;20410;-89
2023/10/17 13:35:28;;;;;;;3.40;3.10;;;14.50;1.00;;;;;;4982557;28;20394;-89
2023/10/17 13:37:55;;;;;;;3.70;2.95;;;14.30;1.00;;;;;;4978606;28;20482;-89
2023/10/17 13:40:24;;;;;;;2.95;2.60;;;13.60;1.00;;;;;;4978230;28;20434;-89
2023/10/17 13:42:51;;;;;;;4.80;2.85;;;15.30;1.00;;;;;;4977920;28;20394;-89
2023/10/17 13:45:17;;;;;;;4.40;3.10;;;14.60;1.00;;;;;;4977940;28;20406;-89
2023/10/17 13:47:43;;;;;;;3.00;2.80;;;14.90;1.00;;;;;;4979001;28;20474;-90
2023/10/17 13:50:13;;;;;;;3.17;2.67;;;14.60;1.00;;;;;;4978399;28;20434;-88
2023/10/17 13:52:39;;;;;;;3.58;2.70;;;14.70;1.00;;;;;;4978325;28;20387;-88
2023/10/17 13:55:09;;;;;;;3.60;2.63;;;13.70;1.00;;;;;;4978944;28;20922;-88
2023/10/17 13:57:38;;;;;;;4.57;3.42;;;15.30;1.00;;;;;;4985864;28;20402;-88
2023/10/17 14:00:06;;;;;;;3.33;3.03;;;15.30;1.00;;;;;;4977624;28;20394;-88
2023/10/17 14:02:32;;;;;;;3.50;3.03;;;15.00;1.00;;;;;;4978028;28;20498;-89
2023/10/17 14:04:57;;;;;;;4.25;3.25;;;15.50;1.00;;;;;;4976798;28;20493;-89
2023/10/17 14:07:23;;;;;;;3.73;3.40;;;14.20;1.00;;;;;;4977647;28;20811;-88
2023/10/17 14:09:55;;;;;;;5.20;4.00;;;16.90;1.00;;;;;;4977685;28;20390;-89
2023/10/17 14:12:21;;;;;;;3.88;3.50;;;15.40;1.00;;;;;;4994399;28;20444;-89
2023/10/17 14:14:47;;;;;;;4.80;3.70;;;15.60;1.00;;;;;;4986088;28;20398;-88
2023/10/17 14:17:12;;;;;;;3.50;3.20;;;15.20;1.00;;;;;;4986294;28;20418;-89
2023/10/17 14:19:44;;;;;;;4.15;3.40;;;16.40;1.00;;;;;;4976913;28;20404;-89
2023/10/17 14:27:22;;;;;;;4.10;3.70;;;15.20;1.00;;;;;;4995573;28;20465;-88
2023/10/17 14:29:49;;;;;;;3.43;3.10;;;14.60;1.00;;;;;;4978418;28;20409;-89
2023/10/17 14:32:15;;;;;;;4.10;3.40;;;15.00;1.00;;;;;;4976522;28;20409;-89
2023/10/17 14:34:41;;;;;;;4.75;3.40;;;15.00;1.00;;;;;;4996419;28;20393;-88
2023/10/17 14:37:07;;;;;;;5.18;3.33;;;15.00;1.00;;;;;;4994920;28;20398;-88
2023/10/17 14:39:33;;;;;;;4.10;3.70;;;17.90;1.00;;;;;;4976193;28;20398;-89
2023/10/17 14:41:59;;;;;;;4.20;3.65;;;14.10;1.00;;;;;;4995988;28;20415;-89
2023/10/17 14:44:25;;;;;;;3.80;3.50;;;14.70;1.00;;;;;;4998721;28;20474;-88
2023/10/17 14:46:52;;;;;;;5.13;3.20;;;14.80;1.00;;;;;;4977062;28;20382;-88
2023/10/17 14:49:19;;;;;;;3.83;3.50;;;15.10;1.00;;;;;;4981305;28;20410;-88
2023/10/17 14:51:45;;;;;;;4.10;3.60;;;15.30;1.00;;;;;;4978268;28;20494;-88
2023/10/17 14:54:13;;;;;;;3.45;3.15;;;14.60;1.00;;;;;;4977338;28;20450;-88
2023/10/17 14:56:39;;;;;;;7.75;4.30;;;15.30;1.00;;;;;;4976984;28;20390;-89
2023/10/17 14:59:05;;;;;;;4.68;3.70;;;15.60;1.00;;;;;;4977840;28;20394;-88
2023/10/17 15:01:31;;;;;;;5.28;3.90;;;15.00;1.00;;;;;;4996334;28;20818;-88
2023/10/17 15:03:59;;;;;;;5.47;3.92;;;15.00;1.00;;;;;;4977543;28;20461;-88
2023/10/17 15:06:25;;;;;;;5.20;4.00;;;16.20;1.00;;;;;;4994601;28;20865;-89
2023/10/17 15:08:50;;;;;;;5.40;3.93;;;15.10;1.00;;;;;;5000877;28;20391;-88
2023/10/17 15:11:16;;;;;;;4.30;3.90;;;15.20;1.00;;;;;;4978593;28;20473;-88
2023/10/17 15:13:42;;;;;;;4.40;4.00;;;15.50;1.00;;;;;;4979829;28;20783;-88
2023/10/17 15:16:15;;;;;;;4.20;3.80;;;15.00;1.00;;;;;;4990131;28;20390;-88
2023/10/17 15:18:41;;;;;;;4.05;3.60;;;15.80;1.00;;;;;;4991507;28;20407;-88
2023/10/17 15:21:08;;;;;;;4.55;4.15;;;15.30;1.00;;;;;;4989205;28;20446;-90
2023/10/17 15:23:40;;;;;;;4.60;3.85;;;15.20;1.00;;;;;;4983660;28;20449;-88
2023/10/17 15:26:06;;;;;;;4.43;4.03;;;14.20;1.00;;;;;;4981189;28;20448;-88